Gordon V.sr. — WDB8505 — position and weather

sailwx.info

Track history (hours):
 
Tides and Currents Weather Stations Pressure Air Temp Water Temp Dewpoint Dewpoint Depression Visibility Wind Speed Wind Dir Waves Ship Positions

Gordon V.sr.

Owner: B&G TOWING L.L.C., Lafitte, LA. More information available from US FCC via Universal Licensing System and Coast Guard Vessel Documentation Center.

Last reported at 2014-Oct-21 12:19 UTC. Time now 2014-Oct-22 08:06 UTC.
Position N 29°60' W 090°01'.

MMSI: 365910942.

Date/timePositionNaut miles runAvg speedWind from/ knotsBaromVisibWave heightAir tempDewpointWater temp
2014-Oct-21 12:19N 29°60' W 090°01'  
2014-Oct-18 05:18N 29°59' W 090°01'11 0.5
2014-Oct-17 09:29N 29°55' W 090°12'11 0.2
2014-Oct-15 11:21N 29°60' W 090°01'  
2014-Oct-13 06:19N 29°57' W 090°19'3 3.9
2014-Oct-13 05:32N 29°56' W 090°22'4 3.9
2014-Oct-13 04:33N 29°60' W 090°25'4 3.5
2014-Oct-13 03:33N 30°01' W 090°28'3 3.2
2014-Oct-13 02:33N 30°03' W 090°32'4 4.2
2014-Oct-13 01:33N 30°02' W 090°36'1 1.4
2014-Oct-13 00:33N 30°02' W 090°38'0 0.0
2014-Oct-12 23:33N 30°02' W 090°38'0 0.3
2014-Oct-12 22:33N 30°02' W 090°38'2 2.2
2014-Oct-12 21:33N 30°03' W 090°35'2 2.4
2014-Oct-12 20:33N 30°03' W 090°33'13 4.4
2014-Oct-12 17:28N 29°56' W 090°19'  
Track history (hours):
 
Tides and Currents Weather Stations Pressure Air Temp Water Temp Dewpoint Dewpoint Depression Visibility Wind Speed Wind Dir Waves Ship Positions

Gordon V.sr.

Owner: B&G TOWING L.L.C., Lafitte, LA. More information available from US FCC via Universal Licensing System and Coast Guard Vessel Documentation Center.

Last reported at 2014-Oct-21 12:19 UTC. Time now 2014-Oct-22 08:06 UTC.
Position N 29°60' W 090°01'.

MMSI: 365910942.

Date/timePositionNaut miles runAvg speedWind from/ knotsBaromVisibWave heightAir tempDewpointWater temp
2014-Oct-21 12:19N 29°60' W 090°01'  
2014-Oct-18 05:18N 29°59' W 090°01'11 0.5
2014-Oct-17 09:29N 29°55' W 090°12'11 0.2
2014-Oct-15 11:21N 29°60' W 090°01'  
2014-Oct-13 06:19N 29°57' W 090°19'3 3.9
2014-Oct-13 05:32N 29°56' W 090°22'4 3.9
2014-Oct-13 04:33N 29°60' W 090°25'4 3.5
2014-Oct-13 03:33N 30°01' W 090°28'3 3.2
2014-Oct-13 02:33N 30°03' W 090°32'4 4.2
2014-Oct-13 01:33N 30°02' W 090°36'1 1.4
2014-Oct-13 00:33N 30°02' W 090°38'0 0.0
2014-Oct-12 23:33N 30°02' W 090°38'0 0.3
2014-Oct-12 22:33N 30°02' W 090°38'2 2.2
2014-Oct-12 21:33N 30°03' W 090°35'2 2.4
2014-Oct-12 20:33N 30°03' W 090°33'13 4.4
2014-Oct-12 17:28N 29°56' W 090°19'  

Dump ship's entire track history